sensor_id;sensor_type;location;lat;lon;timestamp;pressure;altitude;pressure_sealevel;temperature;humidity
31285;BME280;56605;51.516;6.742;2023-05-25T00:01:48;102314.47;;;9.74;100.00
31285;BME280;56605;51.516;6.742;2023-05-25T00:04:14;102310.63;;;9.67;100.00
31285;BME280;56605;51.516;6.742;2023-05-25T00:06:41;102307.09;;;9.55;100.00
31285;BME280;56605;51.516;6.742;2023-05-25T00:09:06;102313.50;;;9.41;100.00
31285;BME280;56605;51.516;6.742;2023-05-25T00:11:31;102304.69;;;9.51;100.00
31285;BME280;56605;51.516;6.742;2023-05-25T00:13:57;102302.25;;;9.48;100.00
31285;BME280;56605;51.516;6.742;2023-05-25T00:16:22;102302.84;;;9.41;100.00
31285;BME280;56605;51.516;6.742;2023-05-25T00:18:47;102298.38;;;9.41;100.00
31285;BME280;56605;51.516;6.742;2023-05-25T00:21:13;102302.13;;;9.27;100.00
31285;BME280;56605;51.516;6.742;2023-05-25T00:23:39;102310.69;;;9.08;100.00
31285;BME280;56605;51.516;6.742;2023-05-25T00:26:05;102301.66;;;9.10;100.00
31285;BME280;56605;51.516;6.742;2023-05-25T00:28:30;102305.25;;;9.09;100.00
31285;BME280;56605;51.516;6.742;2023-05-25T00:30:55;102307.56;;;9.14;100.00
31285;BME280;56605;51.516;6.742;2023-05-25T00:33:21;102309.72;;;8.97;100.00
31285;BME280;56605;51.516;6.742;2023-05-25T00:35:46;102308.91;;;9.20;100.00
31285;BME280;56605;51.516;6.742;2023-05-25T00:38:20;102309.53;;;9.23;100.00
31285;BME280;56605;51.516;6.742;2023-05-25T00:40:46;102319.44;;;9.10;100.00
31285;BME280;56605;51.516;6.742;2023-05-25T00:43:11;102316.88;;;8.97;100.00
31285;BME280;56605;51.516;6.742;2023-05-25T00:45:37;102315.78;;;8.99;100.00
31285;BME280;56605;51.516;6.742;2023-05-25T00:48:03;102311.19;;;9.02;100.00
31285;BME280;56605;51.516;6.742;2023-05-25T00:50:40;102307.44;;;9.04;100.00
31285;BME280;56605;51.516;6.742;2023-05-25T00:53:07;102313.72;;;8.92;100.00
31285;BME280;56605;51.516;6.742;2023-05-25T00:55:36;102317.56;;;8.87;100.00
31285;BME280;56605;51.516;6.742;2023-05-25T00:58:03;102319.50;;;8.85;100.00
31285;BME280;56605;51.516;6.742;2023-05-25T01:00:32;102321.44;;;8.83;100.00
31285;BME280;56605;51.516;6.742;2023-05-25T01:02:58;102323.88;;;8.86;100.00
31285;BME280;56605;51.516;6.742;2023-05-25T01:05:25;102324.31;;;8.69;100.00
31285;BME280;56605;51.516;6.742;2023-05-25T01:07:54;102333.06;;;8.82;100.00
31285;BME280;56605;51.516;6.742;2023-05-25T01:10:21;102331.75;;;8.88;100.00
31285;BME280;56605;51.516;6.742;2023-05-25T01:12:49;102321.47;;;8.95;100.00
31285;BME280;56605;51.516;6.742;2023-05-25T01:15:17;102334.06;;;8.93;100.00
31285;BME280;56605;51.516;6.742;2023-05-25T01:17:42;102325.59;;;8.99;100.00
31285;BME280;56605;51.516;6.742;2023-05-25T01:20:08;102332.13;;;9.06;100.00
31285;BME280;56605;51.516;6.742;2023-05-25T01:25:17;102333.00;;;9.07;100.00
31285;BME280;56605;51.516;6.742;2023-05-25T01:28:06;102334.44;;;8.99;100.00
31285;BME280;56605;51.516;6.742;2023-05-25T01:30:35;102331.41;;;8.93;100.00
31285;BME280;56605;51.516;6.742;2023-05-25T01:33:02;102338.31;;;8.95;100.00
31285;BME280;56605;51.516;6.742;2023-05-25T01:35:29;102337.78;;;8.79;100.00
31285;BME280;56605;51.516;6.742;2023-05-25T01:37:57;102329.66;;;8.80;100.00
31285;BME280;56605;51.516;6.742;2023-05-25T01:40:23;102332.66;;;8.64;100.00
31285;BME280;56605;51.516;6.742;2023-05-25T01:42:48;102329.88;;;8.66;100.00
31285;BME280;56605;51.516;6.742;2023-05-25T01:45:13;102331.81;;;8.50;100.00
31285;BME280;56605;51.516;6.742;2023-05-25T01:50:27;102342.06;;;8.57;100.00
31285;BME280;56605;51.516;6.742;2023-05-25T01:53:08;102347.28;;;8.58;100.00
31285;BME280;56605;51.516;6.742;2023-05-25T01:56:00;102345.88;;;8.53;100.00
31285;BME280;56605;51.516;6.742;2023-05-25T01:58:34;102354.09;;;8.49;100.00
31285;BME280;56605;51.516;6.742;2023-05-25T02:01:01;102346.56;;;8.43;100.00
31285;BME280;56605;51.516;6.742;2023-05-25T02:03:26;102343.25;;;8.40;100.00
31285;BME280;56605;51.516;6.742;2023-05-25T02:05:52;102344.66;;;8.45;100.00
31285;BME280;56605;51.516;6.742;2023-05-25T02:08:17;102347.88;;;8.37;100.00
31285;BME280;56605;51.516;6.742;2023-05-25T02:10:44;102339.13;;;8.35;100.00
31285;BME280;56605;51.516;6.742;2023-05-25T02:13:09;102339.78;;;8.39;100.00
31285;BME280;56605;51.516;6.742;2023-05-25T02:15:35;102338.78;;;8.40;100.00
31285;BME280;56605;51.516;6.742;2023-05-25T02:18:00;102339.84;;;8.26;100.00
31285;BME280;56605;51.516;6.742;2023-05-25T02:20:26;102335.00;;;8.31;100.00
31285;BME280;56605;51.516;6.742;2023-05-25T02:22:52;102339.13;;;8.35;100.00
31285;BME280;56605;51.516;6.742;2023-05-25T02:25:17;102344.41;;;8.24;100.00
31285;BME280;56605;51.516;6.742;2023-05-25T02:27:43;102338.75;;;8.29;100.00
31285;BME280;56605;51.516;6.742;2023-05-25T02:30:09;102343.88;;;8.19;100.00
31285;BME280;56605;51.516;6.742;2023-05-25T02:32:34;102346.69;;;8.04;100.00
31285;BME280;56605;51.516;6.742;2023-05-25T02:34:59;102350.00;;;8.08;100.00
31285;BME280;56605;51.516;6.742;2023-05-25T02:37:25;102347.00;;;8.12;100.00
31285;BME280;56605;51.516;6.742;2023-05-25T02:39:50;102343.56;;;7.86;100.00
31285;BME280;56605;51.516;6.742;2023-05-25T02:42:16;102359.03;;;7.68;100.00
31285;BME280;56605;51.516;6.742;2023-05-25T02:44:41;102345.28;;;7.87;100.00
31285;BME280;56605;51.516;6.742;2023-05-25T02:47:12;102342.22;;;7.80;100.00
31285;BME280;56605;51.516;6.742;2023-05-25T02:49:37;102346.75;;;7.91;100.00
31285;BME280;56605;51.516;6.742;2023-05-25T02:52:03;102348.28;;;7.69;100.00
31285;BME280;56605;51.516;6.742;2023-05-25T02:54:29;102355.91;;;7.87;100.00
31285;BME280;56605;51.516;6.742;2023-05-25T02:56:54;102351.53;;;7.99;100.00
31285;BME280;56605;51.516;6.742;2023-05-25T02:59:19;102354.00;;;7.76;100.00
31285;BME280;56605;51.516;6.742;2023-05-25T03:01:45;102357.81;;;7.85;100.00
31285;BME280;56605;51.516;6.742;2023-05-25T03:04:10;102347.94;;;7.87;100.00
31285;BME280;56605;51.516;6.742;2023-05-25T03:06:36;102357.34;;;7.67;100.00
31285;BME280;56605;51.516;6.742;2023-05-25T03:09:02;102351.06;;;7.55;100.00
31285;BME280;56605;51.516;6.742;2023-05-25T03:11:29;102355.41;;;7.69;100.00
31285;BME280;56605;51.516;6.742;2023-05-25T03:13:54;102357.78;;;7.47;100.00
31285;BME280;56605;51.516;6.742;2023-05-25T03:16:20;102363.78;;;7.63;100.00
31285;BME280;56605;51.516;6.742;2023-05-25T03:18:47;102371.09;;;7.85;100.00
31285;BME280;56605;51.516;6.742;2023-05-25T03:21:12;102381.22;;;7.80;100.00
31285;BME280;56605;51.516;6.742;2023-05-25T03:23:37;102377.94;;;7.76;100.00
31285;BME280;56605;51.516;6.742;2023-05-25T03:26:03;102378.25;;;7.71;100.00
31285;BME280;56605;51.516;6.742;2023-05-25T03:28:28;102381.22;;;7.93;100.00
31285;BME280;56605;51.516;6.742;2023-05-25T03:30:53;102397.28;;;7.78;100.00
31285;BME280;56605;51.516;6.742;2023-05-25T03:33:19;102388.66;;;7.74;100.00
31285;BME280;56605;51.516;6.742;2023-05-25T03:35:44;102393.66;;;7.79;100.00
31285;BME280;56605;51.516;6.742;2023-05-25T03:38:10;102390.25;;;7.90;100.00
31285;BME280;56605;51.516;6.742;2023-05-25T03:40:35;102392.16;;;7.88;100.00
31285;BME280;56605;51.516;6.742;2023-05-25T03:43:00;102390.91;;;7.81;100.00
31285;BME280;56605;51.516;6.742;2023-05-25T03:45:26;102397.09;;;7.81;100.00
31285;BME280;56605;51.516;6.742;2023-05-25T03:47:51;102396.75;;;7.60;100.00
31285;BME280;56605;51.516;6.742;2023-05-25T03:50:16;102403.34;;;7.67;100.00
31285;BME280;56605;51.516;6.742;2023-05-25T03:52:42;102394.94;;;7.73;100.00
31285;BME280;56605;51.516;6.742;2023-05-25T03:55:08;102399.00;;;7.66;100.00
31285;BME280;56605;51.516;6.742;2023-05-25T03:57:33;102405.69;;;7.72;100.00
31285;BME280;56605;51.516;6.742;2023-05-25T03:59:58;102404.31;;;7.66;100.00
31285;BME280;56605;51.516;6.742;2023-05-25T04:02:24;102404.53;;;7.63;100.00
31285;BME280;56605;51.516;6.742;2023-05-25T04:04:49;102401.97;;;7.61;100.00
31285;BME280;56605;51.516;6.742;2023-05-25T04:07:17;102408.13;;;7.75;100.00
31285;BME280;56605;51.516;6.742;2023-05-25T04:09:43;102401.75;;;7.78;100.00
31285;BME280;56605;51.516;6.742;2023-05-25T04:12:08;102409.94;;;7.74;100.00
31285;BME280;56605;51.516;6.742;2023-05-25T04:14:33;102412.50;;;7.76;100.00
31285;BME280;56605;51.516;6.742;2023-05-25T04:16:59;102410.59;;;7.78;100.00
31285;BME280;56605;51.516;6.742;2023-05-25T04:19:24;102405.91;;;7.69;100.00
31285;BME280;56605;51.516;6.742;2023-05-25T04:21:49;102407.06;;;7.78;100.00
31285;BME280;56605;51.516;6.742;2023-05-25T04:24:15;102426.25;;;7.70;100.00
31285;BME280;56605;51.516;6.742;2023-05-25T04:26:40;102416.97;;;7.76;100.00
31285;BME280;56605;51.516;6.742;2023-05-25T04:29:05;102423.13;;;7.89;100.00
31285;BME280;56605;51.516;6.742;2023-05-25T04:31:31;102419.41;;;7.92;100.00
31285;BME280;56605;51.516;6.742;2023-05-25T04:33:56;102428.66;;;7.99;100.00
31285;BME280;56605;51.516;6.742;2023-05-25T04:36:23;102427.25;;;8.06;100.00
31285;BME280;56605;51.516;6.742;2023-05-25T04:38:48;102430.66;;;8.08;100.00
31285;BME280;56605;51.516;6.742;2023-05-25T04:41:16;102427.53;;;8.15;100.00
31285;BME280;56605;51.516;6.742;2023-05-25T04:43:41;102433.91;;;8.25;100.00
31285;BME280;56605;51.516;6.742;2023-05-25T04:46:09;102428.25;;;8.30;100.00
31285;BME280;56605;51.516;6.742;2023-05-25T04:48:35;102432.38;;;8.34;100.00
31285;BME280;56605;51.516;6.742;2023-05-25T04:51:03;102435.56;;;8.39;100.00
31285;BME280;56605;51.516;6.742;2023-05-25T04:53:28;102442.09;;;8.35;100.00
31285;BME280;56605;51.516;6.742;2023-05-25T04:55:54;102440.56;;;8.44;100.00
31285;BME280;56605;51.516;6.742;2023-05-25T04:58:20;102447.78;;;8.55;100.00
31285;BME280;56605;51.516;6.742;2023-05-25T05:00:46;102451.91;;;8.59;100.00
31285;BME280;56605;51.516;6.742;2023-05-25T05:03:11;102453.81;;;8.70;100.00
31285;BME280;56605;51.516;6.742;2023-05-25T05:05:37;102457.81;;;8.75;100.00
31285;BME280;56605;51.516;6.742;2023-05-25T05:08:03;102458.69;;;8.76;100.00
31285;BME280;56605;51.516;6.742;2023-05-25T05:10:28;102466.50;;;8.91;100.00
31285;BME280;56605;51.516;6.742;2023-05-25T05:12:53;102459.41;;;8.78;100.00
31285;BME280;56605;51.516;6.742;2023-05-25T05:15:19;102454.28;;;8.88;100.00
31285;BME280;56605;51.516;6.742;2023-05-25T05:17:44;102452.91;;;8.82;100.00
31285;BME280;56605;51.516;6.742;2023-05-25T05:20:10;102453.41;;;8.87;100.00
31285;BME280;56605;51.516;6.742;2023-05-25T05:22:36;102449.09;;;8.98;100.00
31285;BME280;56605;51.516;6.742;2023-05-25T05:25:01;102460.88;;;9.07;100.00
31285;BME280;56605;51.516;6.742;2023-05-25T05:27:26;102464.53;;;9.17;100.00
31285;BME280;56605;51.516;6.742;2023-05-25T05:29:52;102458.53;;;9.26;100.00
31285;BME280;56605;51.516;6.742;2023-05-25T05:32:17;102467.88;;;9.32;100.00
31285;BME280;56605;51.516;6.742;2023-05-25T05:34:42;102462.41;;;9.22;100.00
31285;BME280;56605;51.516;6.742;2023-05-25T05:37:08;102466.91;;;9.45;100.00
31285;BME280;56605;51.516;6.742;2023-05-25T05:39:33;102476.75;;;9.44;100.00
31285;BME280;56605;51.516;6.742;2023-05-25T05:41:58;102482.47;;;9.62;100.00
31285;BME280;56605;51.516;6.742;2023-05-25T05:44:24;102482.72;;;9.59;100.00
31285;BME280;56605;51.516;6.742;2023-05-25T05:46:50;102478.84;;;9.75;100.00
31285;BME280;56605;51.516;6.742;2023-05-25T05:49:15;102488.31;;;9.79;100.00
31285;BME280;56605;51.516;6.742;2023-05-25T05:51:40;102488.81;;;9.96;100.00
31285;BME280;56605;51.516;6.742;2023-05-25T05:54:05;102493.31;;;10.07;100.00
31285;BME280;56605;51.516;6.742;2023-05-25T05:56:31;102500.97;;;10.23;100.00
31285;BME280;56605;51.516;6.742;2023-05-25T05:58:56;102494.41;;;10.27;100.00
31285;BME280;56605;51.516;6.742;2023-05-25T06:01:22;102498.19;;;10.24;100.00
31285;BME280;56605;51.516;6.742;2023-05-25T06:03:48;102497.56;;;10.21;100.00
31285;BME280;56605;51.516;6.742;2023-05-25T06:06:13;102498.75;;;10.28;100.00
31285;BME280;56605;51.516;6.742;2023-05-25T06:08:39;102505.94;;;10.27;100.00
31285;BME280;56605;51.516;6.742;2023-05-25T06:11:07;102508.22;;;10.32;100.00
31285;BME280;56605;51.516;6.742;2023-05-25T06:13:32;102500.34;;;10.31;100.00
31285;BME280;56605;51.516;6.742;2023-05-25T06:15:57;102500.47;;;10.52;100.00
31285;BME280;56605;51.516;6.742;2023-05-25T06:18:23;102495.84;;;10.65;100.00
31285;BME280;56605;51.516;6.742;2023-05-25T06:20:48;102501.31;;;10.64;100.00
31285;BME280;56605;51.516;6.742;2023-05-25T06:23:14;102500.22;;;10.55;100.00
31285;BME280;56605;51.516;6.742;2023-05-25T06:25:40;102493.13;;;10.77;100.00
31285;BME280;56605;51.516;6.742;2023-05-25T06:28:05;102502.81;;;10.89;100.00
31285;BME280;56605;51.516;6.742;2023-05-25T06:30:30;102502.50;;;10.71;100.00
31285;BME280;56605;51.516;6.742;2023-05-25T06:32:56;102505.22;;;10.60;100.00
31285;BME280;56605;51.516;6.742;2023-05-25T06:35:22;102505.78;;;10.75;100.00
31285;BME280;56605;51.516;6.742;2023-05-25T06:37:48;102508.75;;;10.93;100.00
31285;BME280;56605;51.516;6.742;2023-05-25T06:40:14;102518.16;;;10.76;100.00
31285;BME280;56605;51.516;6.742;2023-05-25T06:42:40;102513.16;;;10.83;100.00
31285;BME280;56605;51.516;6.742;2023-05-25T06:45:06;102515.75;;;11.06;100.00
31285;BME280;56605;51.516;6.742;2023-05-25T06:47:32;102525.88;;;10.90;100.00
31285;BME280;56605;51.516;6.742;2023-05-25T06:49:58;102514.53;;;11.10;100.00
31285;BME280;56605;51.516;6.742;2023-05-25T06:52:23;102517.53;;;11.16;100.00
31285;BME280;56605;51.516;6.742;2023-05-25T06:54:49;102520.50;;;11.35;100.00
31285;BME280;56605;51.516;6.742;2023-05-25T06:57:14;102533.09;;;11.44;100.00
31285;BME280;56605;51.516;6.742;2023-05-25T06:59:39;102521.00;;;10.96;100.00
31285;BME280;56605;51.516;6.742;2023-05-25T07:02:05;102529.94;;;11.18;100.00
31285;BME280;56605;51.516;6.742;2023-05-25T07:04:30;102525.16;;;11.21;100.00
31285;BME280;56605;51.516;6.742;2023-05-25T07:06:57;102523.16;;;11.35;100.00
31285;BME280;56605;51.516;6.742;2023-05-25T07:09:37;102522.84;;;11.49;100.00
31285;BME280;56605;51.516;6.742;2023-05-25T07:12:11;102528.31;;;11.26;100.00
31285;BME280;56605;51.516;6.742;2023-05-25T07:14:37;102532.06;;;11.35;100.00
31285;BME280;56605;51.516;6.742;2023-05-25T07:17:02;102535.53;;;11.47;100.00
31285;BME280;56605;51.516;6.742;2023-05-25T07:19:27;102534.94;;;11.11;100.00
31285;BME280;56605;51.516;6.742;2023-05-25T07:21:52;102532.59;;;11.50;100.00
31285;BME280;56605;51.516;6.742;2023-05-25T07:24:18;102527.22;;;11.72;100.00
31285;BME280;56605;51.516;6.742;2023-05-25T07:26:43;102518.06;;;11.74;100.00
31285;BME280;56605;51.516;6.742;2023-05-25T07:29:09;102528.84;;;11.63;100.00
31285;BME280;56605;51.516;6.742;2023-05-25T07:31:34;102528.38;;;11.79;100.00
31285;BME280;56605;51.516;6.742;2023-05-25T07:34:00;102534.84;;;12.29;100.00
31285;BME280;56605;51.516;6.742;2023-05-25T07:36:26;102535.00;;;11.96;100.00
31285;BME280;56605;51.516;6.742;2023-05-25T07:38:51;102539.50;;;12.17;100.00
31285;BME280;56605;51.516;6.742;2023-05-25T07:41:16;102547.50;;;11.96;100.00
31285;BME280;56605;51.516;6.742;2023-05-25T07:43:42;102539.59;;;11.94;100.00
31285;BME280;56605;51.516;6.742;2023-05-25T07:46:07;102542.69;;;12.11;100.00
31285;BME280;56605;51.516;6.742;2023-05-25T07:48:32;102549.72;;;12.12;100.00
31285;BME280;56605;51.516;6.742;2023-05-25T07:50:58;102542.81;;;11.88;100.00
31285;BME280;56605;51.516;6.742;2023-05-25T07:53:23;102545.94;;;12.14;100.00
31285;BME280;56605;51.516;6.742;2023-05-25T07:55:48;102538.59;;;12.07;100.00
31285;BME280;56605;51.516;6.742;2023-05-25T07:58:13;102546.84;;;12.03;100.00
31285;BME280;56605;51.516;6.742;2023-05-25T08:00:39;102545.00;;;12.25;100.00
31285;BME280;56605;51.516;6.742;2023-05-25T08:03:04;102546.66;;;12.58;100.00
31285;BME280;56605;51.516;6.742;2023-05-25T08:05:29;102550.13;;;13.09;100.00
31285;BME280;56605;51.516;6.742;2023-05-25T08:07:55;102544.94;;;13.57;100.00
31285;BME280;56605;51.516;6.742;2023-05-25T08:10:20;102547.31;;;13.70;100.00
31285;BME280;56605;51.516;6.742;2023-05-25T08:12:45;102548.31;;;13.69;100.00
31285;BME280;56605;51.516;6.742;2023-05-25T08:15:11;102557.19;;;13.00;100.00
31285;BME280;56605;51.516;6.742;2023-05-25T08:17:37;102550.16;;;13.68;100.00
31285;BME280;56605;51.516;6.742;2023-05-25T08:20:03;102548.50;;;14.05;100.00
31285;BME280;56605;51.516;6.742;2023-05-25T08:22:30;102550.66;;;13.92;100.00
31285;BME280;56605;51.516;6.742;2023-05-25T08:24:55;102550.13;;;14.26;100.00
31285;BME280;56605;51.516;6.742;2023-05-25T08:27:21;102556.84;;;14.12;100.00
31285;BME280;56605;51.516;6.742;2023-05-25T08:29:46;102548.59;;;14.52;100.00
31285;BME280;56605;51.516;6.742;2023-05-25T08:32:11;102564.88;;;13.54;100.00
31285;BME280;56605;51.516;6.742;2023-05-25T08:34:36;102558.81;;;14.10;100.00
31285;BME280;56605;51.516;6.742;2023-05-25T08:37:02;102564.53;;;13.48;100.00
31285;BME280;56605;51.516;6.742;2023-05-25T08:39:27;102563.69;;;13.37;100.00
31285;BME280;56605;51.516;6.742;2023-05-25T08:41:53;102569.38;;;13.44;100.00
31285;BME280;56605;51.516;6.742;2023-05-25T08:44:19;102580.94;;;13.25;100.00
31285;BME280;56605;51.516;6.742;2023-05-25T08:46:48;102575.16;;;13.29;100.00
31285;BME280;56605;51.516;6.742;2023-05-25T08:49:14;102574.59;;;13.55;100.00
31285;BME280;56605;51.516;6.742;2023-05-25T08:51:51;102581.38;;;13.60;100.00
31285;BME280;56605;51.516;6.742;2023-05-25T08:54:18;102579.09;;;13.45;100.00
31285;BME280;56605;51.516;6.742;2023-05-25T08:56:51;102570.38;;;13.53;100.00
31285;BME280;56605;51.516;6.742;2023-05-25T09:04:54;102574.31;;;13.59;100.00
31285;BME280;56605;51.516;6.742;2023-05-25T09:07:20;102584.75;;;13.22;100.00
31285;BME280;56605;51.516;6.742;2023-05-25T09:09:47;102578.09;;;12.97;100.00
31285;BME280;56605;51.516;6.742;2023-05-25T09:12:13;102581.03;;;13.03;100.00
31285;BME280;56605;51.516;6.742;2023-05-25T09:14:39;102580.72;;;12.77;100.00
31285;BME280;56605;51.516;6.742;2023-05-25T09:17:11;102585.72;;;13.11;100.00
31285;BME280;56605;51.516;6.742;2023-05-25T09:19:36;102591.09;;;13.21;100.00
31285;BME280;56605;51.516;6.742;2023-05-25T09:22:02;102588.22;;;12.93;100.00
31285;BME280;56605;51.516;6.742;2023-05-25T09:24:28;102585.84;;;13.19;100.00
31285;BME280;56605;51.516;6.742;2023-05-25T09:26:53;102594.19;;;13.16;100.00
31285;BME280;56605;51.516;6.742;2023-05-25T09:29:19;102593.34;;;13.16;100.00
31285;BME280;56605;51.516;6.742;2023-05-25T09:31:45;102593.22;;;13.27;100.00
31285;BME280;56605;51.516;6.742;2023-05-25T09:34:12;102589.25;;;13.22;100.00
31285;BME280;56605;51.516;6.742;2023-05-25T09:36:38;102593.06;;;13.39;100.00
31285;BME280;56605;51.516;6.742;2023-05-25T09:39:09;102593.91;;;13.19;100.00
31285;BME280;56605;51.516;6.742;2023-05-25T09:41:35;102599.72;;;13.35;100.00
31285;BME280;56605;51.516;6.742;2023-05-25T09:44:01;102591.88;;;14.49;100.00
31285;BME280;56605;51.516;6.742;2023-05-25T09:46:28;102590.28;;;14.28;100.00
31285;BME280;56605;51.516;6.742;2023-05-25T09:48:55;102597.59;;;13.88;100.00
31285;BME280;56605;51.516;6.742;2023-05-25T09:51:20;102588.84;;;14.62;100.00
31285;BME280;56605;51.516;6.742;2023-05-25T09:53:46;102598.44;;;15.02;100.00
31285;BME280;56605;51.516;6.742;2023-05-25T09:56:11;102592.97;;;14.66;100.00
31285;BME280;56605;51.516;6.742;2023-05-25T09:58:37;102594.97;;;14.16;100.00
31285;BME280;56605;51.516;6.742;2023-05-25T10:01:02;102600.16;;;14.65;100.00
31285;BME280;56605;51.516;6.742;2023-05-25T10:03:29;102598.91;;;14.60;100.00
31285;BME280;56605;51.516;6.742;2023-05-25T10:05:55;102598.97;;;14.02;100.00
31285;BME280;56605;51.516;6.742;2023-05-25T10:08:21;102603.41;;;13.73;100.00
31285;BME280;56605;51.516;6.742;2023-05-25T10:10:48;102607.66;;;13.66;100.00
31285;BME280;56605;51.516;6.742;2023-05-25T10:13:19;102613.00;;;13.66;100.00
31285;BME280;56605;51.516;6.742;2023-05-25T10:15:46;102611.44;;;13.93;100.00
31285;BME280;56605;51.516;6.742;2023-05-25T10:18:13;102609.44;;;13.95;100.00
31285;BME280;56605;51.516;6.742;2023-05-25T10:20:40;102609.03;;;13.90;100.00
31285;BME280;56605;51.516;6.742;2023-05-25T10:23:10;102611.59;;;13.91;100.00
31285;BME280;56605;51.516;6.742;2023-05-25T10:25:39;102606.06;;;14.41;100.00
31285;BME280;56605;51.516;6.742;2023-05-25T10:28:29;102613.28;;;13.82;100.00
31285;BME280;56605;51.516;6.742;2023-05-25T10:30:58;102599.44;;;14.35;100.00
31285;BME280;56605;51.516;6.742;2023-05-25T10:33:23;102610.16;;;14.45;100.00
31285;BME280;56605;51.516;6.742;2023-05-25T10:35:49;102609.22;;;14.26;100.00
31285;BME280;56605;51.516;6.742;2023-05-25T10:38:16;102611.22;;;14.62;100.00
31285;BME280;56605;51.516;6.742;2023-05-25T10:40:43;102610.66;;;14.20;100.00
31285;BME280;56605;51.516;6.742;2023-05-25T10:43:12;102610.25;;;14.53;100.00
31285;BME280;56605;51.516;6.742;2023-05-25T10:45:38;102608.25;;;14.27;100.00
31285;BME280;56605;51.516;6.742;2023-05-25T10:48:05;102606.31;;;14.48;100.00
31285;BME280;56605;51.516;6.742;2023-05-25T10:50:34;102603.38;;;14.79;100.00
31285;BME280;56605;51.516;6.742;2023-05-25T10:53:04;102608.75;;;14.69;100.00
31285;BME280;56605;51.516;6.742;2023-05-25T10:55:59;102610.31;;;14.43;100.00
31285;BME280;56605;51.516;6.742;2023-05-25T10:58:26;102609.34;;;14.35;100.00
31285;BME280;56605;51.516;6.742;2023-05-25T11:01:00;102616.44;;;14.64;100.00
31285;BME280;56605;51.516;6.742;2023-05-25T11:17:05;102605.16;;;14.88;100.00
31285;BME280;56605;51.516;6.742;2023-05-25T11:19:58;102598.34;;;14.94;100.00
31285;BME280;56605;51.516;6.742;2023-05-25T11:22:33;102592.00;;;16.21;100.00
31285;BME280;56605;51.516;6.742;2023-05-25T11:25:01;102589.59;;;16.53;99.75
31285;BME280;56605;51.516;6.742;2023-05-25T11:27:30;102587.88;;;15.64;100.00
31285;BME280;56605;51.516;6.742;2023-05-25T11:29:57;102586.19;;;15.63;100.00
31285;BME280;56605;51.516;6.742;2023-05-25T11:32:24;102587.59;;;15.49;100.00
31285;BME280;56605;51.516;6.742;2023-05-25T11:34:54;102583.59;;;15.16;100.00
31285;BME280;56605;51.516;6.742;2023-05-25T11:37:22;102580.94;;;15.79;100.00
31285;BME280;56605;51.516;6.742;2023-05-25T11:39:51;102585.78;;;15.31;100.00
31285;BME280;56605;51.516;6.742;2023-05-25T11:42:19;102588.81;;;15.54;100.00
31285;BME280;56605;51.516;6.742;2023-05-25T11:44:45;102577.59;;;15.59;100.00
31285;BME280;56605;51.516;6.742;2023-05-25T11:47:11;102577.50;;;15.51;100.00
31285;BME280;56605;51.516;6.742;2023-05-25T11:49:44;102573.91;;;15.24;100.00
31285;BME280;56605;51.516;6.742;2023-05-25T11:52:13;102565.69;;;14.89;100.00
31285;BME280;56605;51.516;6.742;2023-05-25T11:54:38;102572.06;;;15.24;100.00
31285;BME280;56605;51.516;6.742;2023-05-25T11:57:21;102568.13;;;15.55;100.00
31285;BME280;56605;51.516;6.742;2023-05-25T11:59:56;102567.06;;;16.54;95.21
31285;BME280;56605;51.516;6.742;2023-05-25T12:02:24;102557.00;;;18.14;89.42
31285;BME280;56605;51.516;6.742;2023-05-25T12:04:54;102557.63;;;18.33;86.35
31285;BME280;56605;51.516;6.742;2023-05-25T12:07:20;102562.66;;;17.62;87.52
31285;BME280;56605;51.516;6.742;2023-05-25T12:09:45;102560.59;;;17.90;86.33
31285;BME280;56605;51.516;6.742;2023-05-25T12:12:10;102546.50;;;19.38;80.64
31285;BME280;56605;51.516;6.742;2023-05-25T12:14:48;102548.84;;;19.18;74.41
31285;BME280;56605;51.516;6.742;2023-05-25T12:17:15;102557.44;;;17.69;80.17
31285;BME280;56605;51.516;6.742;2023-05-25T12:19:41;102547.78;;;18.40;80.47
31285;BME280;56605;51.516;6.742;2023-05-25T12:22:07;102538.94;;;18.06;80.75
31285;BME280;56605;51.516;6.742;2023-05-25T12:24:33;102543.56;;;17.81;82.87
31285;BME280;56605;51.516;6.742;2023-05-25T12:26:58;102542.94;;;17.29;81.01
31285;BME280;56605;51.516;6.742;2023-05-25T12:29:26;102535.91;;;16.76;83.06
31285;BME280;56605;51.516;6.742;2023-05-25T12:31:52;102530.44;;;17.61;80.62
31285;BME280;56605;51.516;6.742;2023-05-25T12:34:18;102532.94;;;17.71;79.96
31285;BME280;56605;51.516;6.742;2023-05-25T12:36:48;102529.59;;;17.60;80.28
31285;BME280;56605;51.516;6.742;2023-05-25T12:39:33;102533.66;;;17.31;82.70
31285;BME280;56605;51.516;6.742;2023-05-25T12:42:01;102531.06;;;16.88;84.13
31285;BME280;56605;51.516;6.742;2023-05-25T12:44:35;102523.28;;;16.85;85.04
31285;BME280;56605;51.516;6.742;2023-05-25T12:47:18;102524.53;;;16.39;89.17
31285;BME280;56605;51.516;6.742;2023-05-25T12:49:46;102535.97;;;17.01;89.04
31285;BME280;56605;51.516;6.742;2023-05-25T12:52:34;102523.00;;;16.37;85.84
31285;BME280;56605;51.516;6.742;2023-05-25T12:57:43;102526.78;;;16.60;84.11
31285;BME280;56605;51.516;6.742;2023-05-25T13:00:18;102526.56;;;17.47;80.31
31285;BME280;56605;51.516;6.742;2023-05-25T13:02:44;102527.53;;;18.91;79.53
31285;BME280;56605;51.516;6.742;2023-05-25T13:05:20;102515.66;;;19.77;70.34
31285;BME280;56605;51.516;6.742;2023-05-25T13:07:46;102515.16;;;20.71;67.29
31285;BME280;56605;51.516;6.742;2023-05-25T13:10:12;102511.13;;;20.45;68.54
31285;BME280;56605;51.516;6.742;2023-05-25T13:12:38;102514.38;;;18.88;71.43